createdAt,value
2019-02-21T00:02:17.162Z,7.63
2019-02-21T00:04:44.334Z,8.50
2019-02-21T00:07:11.524Z,8.60
2019-02-21T00:09:38.697Z,8.33
2019-02-21T00:12:05.882Z,8.03
2019-02-21T00:14:33.114Z,9.00
2019-02-21T00:17:00.295Z,7.93
2019-02-21T00:19:27.476Z,8.43
2019-02-21T00:21:55.107Z,8.50
2019-02-21T00:24:22.276Z,8.67
2019-02-21T00:26:49.489Z,8.87
2019-02-21T00:29:16.653Z,9.20
2019-02-21T00:31:43.836Z,8.33
2019-02-21T00:34:11.097Z,7.40
2019-02-21T00:36:38.362Z,8.33
2019-02-21T00:39:06.694Z,8.50
2019-02-21T00:41:33.927Z,8.30
2019-02-21T00:44:01.086Z,8.37
2019-02-21T00:46:28.287Z,8.47
2019-02-21T00:48:55.469Z,7.07
2019-02-21T00:51:22.661Z,6.97
2019-02-21T00:53:49.832Z,7.67
2019-02-21T00:56:17.620Z,7.10
2019-02-21T00:58:45.321Z,6.97
2019-02-21T01:01:12.503Z,6.83
2019-02-21T01:03:39.685Z,7.30
2019-02-21T01:06:06.846Z,6.87
2019-02-21T01:08:34.043Z,7.23
2019-02-21T01:11:01.475Z,7.10
2019-02-21T01:13:28.665Z,7.23
2019-02-21T01:15:55.834Z,7.10
2019-02-21T01:18:23.031Z,6.83
2019-02-21T01:20:50.199Z,7.73
2019-02-21T01:23:17.367Z,6.63
2019-02-21T01:25:45.086Z,7.47
2019-02-21T01:28:12.266Z,6.73
2019-02-21T01:30:39.464Z,7.47
2019-02-21T01:33:06.627Z,6.73
2019-02-21T01:35:33.809Z,6.77
2019-02-21T01:38:01.005Z,6.53
2019-02-21T01:40:28.262Z,6.73
2019-02-21T01:42:55.525Z,6.20
2019-02-21T01:45:22.687Z,6.13
2019-02-21T01:47:49.848Z,6.33
2019-02-21T01:50:17.074Z,5.90
2019-02-21T01:52:44.321Z,5.93
2019-02-21T01:55:11.577Z,5.70
2019-02-21T01:57:38.773Z,5.47
2019-02-21T02:00:08.170Z,4.43
2019-02-21T02:02:35.350Z,6.13
2019-02-21T02:05:02.514Z,6.30
2019-02-21T02:07:29.697Z,6.07
2019-02-21T02:09:56.880Z,6.27
2019-02-21T02:12:24.701Z,6.10
2019-02-21T02:14:51.881Z,5.30
2019-02-21T02:17:19.192Z,5.43
2019-02-21T02:19:46.386Z,6.27
2019-02-21T02:22:14.101Z,6.80
2019-02-21T02:24:41.301Z,5.87
2019-02-21T02:27:08.478Z,6.50
2019-02-21T02:29:35.647Z,7.00
2019-02-21T02:32:02.847Z,7.00
2019-02-21T02:34:30.023Z,7.33
2019-02-21T02:36:57.210Z,7.60
2019-02-21T02:39:24.385Z,8.83
2019-02-21T02:41:51.564Z,8.83
2019-02-21T02:44:18.757Z,8.83
2019-02-21T02:46:46.027Z,9.90
2019-02-21T02:49:13.690Z,9.80
2019-02-21T02:51:40.862Z,8.87
2019-02-21T02:54:08.072Z,8.87
2019-02-21T02:56:35.237Z,10.60
2019-02-21T02:59:02.406Z,11.00
2019-02-21T03:01:34.643Z,10.13
2019-02-21T03:03:58.495Z,10.53
2019-02-21T03:06:25.701Z,11.17
2019-02-21T03:08:52.867Z,10.00
2019-02-21T03:11:20.709Z,10.37
2019-02-21T03:13:48.164Z,10.70
2019-02-21T03:16:15.345Z,11.13
2019-02-21T03:18:42.531Z,11.50
2019-02-21T03:21:09.717Z,11.13
2019-02-21T03:23:36.918Z,10.77
2019-02-21T03:26:04.686Z,12.33
2019-02-21T03:28:31.886Z,12.33
2019-02-21T03:30:59.072Z,12.10
2019-02-21T03:33:26.358Z,12.13
2019-02-21T03:35:53.595Z,12.33
2019-02-21T03:38:20.775Z,13.30
2019-02-21T03:40:49.012Z,11.83
2019-02-21T03:43:16.194Z,13.63
2019-02-21T03:45:43.370Z,13.30
2019-02-21T03:48:10.535Z,12.07
2019-02-21T03:50:38.289Z,14.40
2019-02-21T03:53:05.468Z,13.37
2019-02-21T03:55:32.640Z,13.43
2019-02-21T03:57:59.855Z,14.47
2019-02-21T04:00:27.096Z,13.87
2019-02-21T04:02:54.694Z,14.83
2019-02-21T04:05:21.897Z,14.37
2019-02-21T04:07:49.616Z,16.00
2019-02-21T04:10:16.786Z,16.57
2019-02-21T04:12:43.981Z,14.33
2019-02-21T04:15:12.867Z,15.50
2019-02-21T04:17:40.047Z,15.47
2019-02-21T04:20:08.203Z,15.23
2019-02-21T04:22:35.392Z,16.97
2019-02-21T04:25:02.633Z,17.10
2019-02-21T04:27:29.820Z,15.73
2019-02-21T04:29:57.029Z,15.47
2019-02-21T04:32:24.207Z,17.17
2019-02-21T04:34:51.401Z,17.20
2019-02-21T04:37:19.096Z,16.63
2019-02-21T04:39:46.293Z,17.53
2019-02-21T04:42:13.474Z,16.83
2019-02-21T04:44:40.689Z,16.63
2019-02-21T04:47:07.935Z,17.23
2019-02-21T04:49:35.122Z,16.87
2019-02-21T04:52:02.378Z,17.10
2019-02-21T04:54:29.557Z,17.70
2019-02-21T04:56:56.735Z,17.30
2019-02-21T04:59:23.959Z,17.87
2019-02-21T05:01:51.134Z,19.23
2019-02-21T05:04:18.306Z,18.10
2019-02-21T05:06:45.504Z,18.47
2019-02-21T05:09:12.685Z,18.43
2019-02-21T05:11:39.874Z,18.13
2019-02-21T05:14:07.043Z,17.73
2019-02-21T05:16:34.227Z,18.90
2019-02-21T05:19:01.390Z,19.90
2019-02-21T05:21:28.555Z,18.90
2019-02-21T05:23:55.759Z,17.87
2019-02-21T05:26:24.577Z,20.10
2019-02-21T05:28:51.837Z,19.13
2019-02-21T05:31:36.088Z,18.47
2019-02-21T05:34:16.946Z,20.23
2019-02-21T05:37:01.937Z,20.77
2019-02-21T05:39:30.859Z,20.13
2019-02-21T05:42:05.221Z,18.57
2019-02-21T05:44:42.874Z,19.40
2019-02-21T05:47:17.525Z,20.73
2019-02-21T05:49:55.083Z,20.80
2019-02-21T05:52:26.826Z,20.40
2019-02-21T05:55:01.441Z,22.73
2019-02-21T05:57:35.955Z,23.47
2019-02-21T06:00:11.134Z,21.60
2019-02-21T06:02:53.493Z,19.03
2019-02-21T06:05:19.494Z,20.57
2019-02-21T06:08:00.708Z,20.90
2019-02-21T06:10:32.232Z,21.13
2019-02-21T06:13:01.047Z,22.13
2019-02-21T06:15:35.954Z,22.33
2019-02-21T06:18:07.728Z,21.50
2019-02-21T06:20:45.315Z,22.33
2019-02-21T06:23:16.548Z,20.50
2019-02-21T06:25:51.448Z,23.97
2019-02-21T06:28:18.720Z,21.00
2019-02-21T06:30:47.624Z,21.63
2019-02-21T06:33:14.825Z,21.30
2019-02-21T06:35:42.605Z,21.83
2019-02-21T06:38:09.778Z,23.30
2019-02-21T06:40:36.960Z,20.97
2019-02-21T06:43:04.579Z,22.93
2019-02-21T06:45:31.861Z,21.53
2019-02-21T06:47:59.117Z,22.73
2019-02-21T06:50:27.242Z,23.50
2019-02-21T06:52:54.734Z,21.10
2019-02-21T06:55:21.902Z,20.70
2019-02-21T06:57:49.112Z,22.73
2019-02-21T07:00:16.380Z,22.40
2019-02-21T07:02:43.628Z,22.90
2019-02-21T07:05:10.826Z,21.27
2019-02-21T07:07:38.709Z,23.80
2019-02-21T07:10:07.257Z,20.83
2019-02-21T07:12:34.527Z,23.27
2019-02-21T07:15:02.509Z,22.13
2019-02-21T07:17:29.717Z,24.13
2019-02-21T07:19:56.907Z,22.77
2019-02-21T07:22:24.083Z,20.50
2019-02-21T07:24:54.089Z,21.47
2019-02-21T07:27:21.557Z,20.70
2019-02-21T07:29:48.728Z,20.97
2019-02-21T07:32:15.905Z,21.40
2019-02-21T07:34:43.078Z,20.70
2019-02-21T07:37:18.107Z,19.87
2019-02-21T07:39:39.730Z,20.57
2019-02-21T07:42:06.895Z,19.10
2019-02-21T07:44:34.083Z,20.40
2019-02-21T07:47:01.246Z,19.17
2019-02-21T07:49:28.435Z,19.03
2019-02-21T07:51:55.605Z,18.33
2019-02-21T07:54:22.770Z,18.97
2019-02-21T07:56:50.506Z,19.70
2019-02-21T07:59:17.694Z,17.80
2019-02-21T08:01:45.394Z,18.40
2019-02-21T08:04:12.603Z,19.67
2019-02-21T08:06:39.802Z,18.13
2019-02-21T08:09:07.338Z,20.53
2019-02-21T08:11:34.522Z,20.13
2019-02-21T08:14:01.702Z,17.80
2019-02-21T08:16:29.069Z,18.30
2019-02-21T08:18:56.814Z,19.43
2019-02-21T08:21:24.020Z,16.67
2019-02-21T08:23:51.702Z,18.90
2019-02-21T08:26:20.107Z,18.23
2019-02-21T08:28:47.545Z,20.00
2019-02-21T08:31:14.718Z,18.83
2019-02-21T08:33:58.053Z,19.53
2019-02-21T08:36:17.894Z,16.20
2019-02-21T08:38:45.112Z,15.93
2019-02-21T08:41:14.578Z,17.83
2019-02-21T08:43:42.158Z,18.80
2019-02-21T08:46:09.342Z,18.93
2019-02-21T08:48:36.686Z,19.00
2019-02-21T08:51:06.098Z,21.13
2019-02-21T08:53:32.763Z,19.20
2019-02-21T08:55:59.940Z,19.97
2019-02-21T08:58:27.559Z,18.83
2019-02-21T09:00:54.769Z,19.60
2019-02-21T09:03:22.487Z,18.80
2019-02-21T09:05:49.670Z,19.00
2019-02-21T09:08:17.408Z,19.43
2019-02-21T09:10:44.597Z,20.33
2019-02-21T09:13:12.296Z,19.90
2019-02-21T09:15:39.479Z,19.03
2019-02-21T09:18:07.202Z,20.23
2019-02-21T09:20:34.372Z,19.60
2019-02-21T09:23:01.570Z,20.03
2019-02-21T09:25:28.742Z,18.83
2019-02-21T09:27:55.930Z,20.00
2019-02-21T09:30:23.118Z,20.60
2019-02-21T09:32:50.281Z,20.33
2019-02-21T09:35:17.488Z,20.00
2019-02-21T09:37:44.664Z,18.67
2019-02-21T09:40:13.534Z,19.90
2019-02-21T09:42:40.715Z,18.83
2019-02-21T09:45:14.834Z,18.80
2019-02-21T09:47:41.354Z,19.77
2019-02-21T09:50:09.494Z,19.93
2019-02-21T09:52:36.674Z,18.37
2019-02-21T09:55:05.243Z,18.03
2019-02-21T09:57:32.426Z,17.43
2019-02-21T09:59:59.615Z,18.17
2019-02-21T10:02:26.819Z,18.03
2019-02-21T10:05:04.213Z,18.70
2019-02-21T10:07:22.897Z,18.23
2019-02-21T10:09:50.070Z,16.63
2019-02-21T10:12:17.798Z,18.03
2019-02-21T10:14:44.989Z,17.77
2019-02-21T10:17:12.174Z,18.40
2019-02-21T10:19:39.380Z,18.40
2019-02-21T10:22:06.553Z,17.13
2019-02-21T10:24:33.732Z,16.93
2019-02-21T10:27:00.917Z,18.57
2019-02-21T10:29:29.765Z,18.50
2019-02-21T10:31:57.010Z,17.43
2019-02-21T10:34:24.190Z,17.00
2019-02-21T10:36:51.346Z,17.40
2019-02-21T10:39:19.001Z,17.40
2019-02-21T10:41:46.174Z,17.63
2019-02-21T10:44:13.350Z,16.60
2019-02-21T10:46:40.533Z,16.60
2019-02-21T10:49:07.724Z,15.47
2019-02-21T10:51:34.903Z,17.27
2019-02-21T10:54:02.096Z,17.13
2019-02-21T10:56:29.328Z,16.77
2019-02-21T10:58:57.007Z,16.93
2019-02-21T11:01:24.180Z,15.70
2019-02-21T11:03:51.363Z,16.53
2019-02-21T11:06:18.550Z,15.03
2019-02-21T11:08:45.736Z,14.93
2019-02-21T11:11:12.908Z,13.80
2019-02-21T11:13:40.694Z,15.07
2019-02-21T11:16:08.378Z,15.93
2019-02-21T11:18:35.575Z,14.70
2019-02-21T11:21:03.306Z,15.57
2019-02-21T11:23:30.490Z,15.63
2019-02-21T11:25:58.194Z,14.60
2019-02-21T11:28:25.367Z,15.17
2019-02-21T11:30:52.561Z,14.30
2019-02-21T11:33:20.336Z,14.63
2019-02-21T11:35:47.560Z,13.20
2019-02-21T11:38:14.767Z,14.03
2019-02-21T11:40:41.939Z,13.50
2019-02-21T11:43:09.589Z,13.60
2019-02-21T11:45:36.766Z,13.40
2019-02-21T11:48:04.506Z,13.77
2019-02-21T11:50:32.141Z,13.43
2019-02-21T11:52:59.303Z,13.73
2019-02-21T11:55:26.518Z,12.90
2019-02-21T11:57:53.761Z,12.73
2019-02-21T12:00:25.049Z,11.03
2019-02-21T12:02:52.225Z,10.43
2019-02-21T12:05:30.186Z,10.47
2019-02-21T12:07:48.318Z,11.10
2019-02-21T12:10:15.479Z,11.47
2019-02-21T12:12:43.165Z,10.30
2019-02-21T12:15:11.974Z,12.07
2019-02-21T12:17:39.163Z,9.50
2019-02-21T12:20:10.837Z,11.73
2019-02-21T12:22:37.997Z,10.03
2019-02-21T12:25:06.651Z,9.97
2019-02-21T12:27:33.837Z,11.53
2019-02-21T12:30:01.017Z,10.73
2019-02-21T12:32:28.207Z,10.70
2019-02-21T12:34:55.399Z,11.97
2019-02-21T12:37:22.579Z,10.23
2019-02-21T12:39:49.789Z,10.37
2019-02-21T12:42:16.963Z,10.27
2019-02-21T12:44:44.146Z,11.07
2019-02-21T12:47:11.332Z,9.87
2019-02-21T12:49:38.514Z,9.87
2019-02-21T12:52:06.285Z,10.07
2019-02-21T12:54:33.470Z,9.40
2019-02-21T12:57:00.643Z,9.13
2019-02-21T12:59:27.826Z,9.37
2019-02-21T13:01:55.005Z,8.17
2019-02-21T13:04:22.198Z,8.57
2019-02-21T13:06:49.437Z,9.90
2019-02-21T13:09:17.114Z,8.43
2019-02-21T13:11:44.289Z,8.83
2019-02-21T13:14:11.466Z,8.40
2019-02-21T13:16:38.662Z,7.90
2019-02-21T13:19:05.829Z,8.00
2019-02-21T13:21:33.009Z,7.67
2019-02-21T13:24:00.227Z,7.80
2019-02-21T13:26:27.422Z,7.70
2019-02-21T13:28:54.954Z,7.53
2019-02-21T13:31:22.754Z,7.30
2019-02-21T13:33:49.945Z,7.27
2019-02-21T13:36:17.182Z,7.20
2019-02-21T13:38:44.364Z,7.07
2019-02-21T13:41:11.544Z,6.73
2019-02-21T13:43:38.718Z,7.00
2019-02-21T13:46:05.898Z,7.03
2019-02-21T13:48:33.067Z,7.03
2019-02-21T13:51:00.237Z,6.77
2019-02-21T13:53:27.414Z,7.57
2019-02-21T13:55:54.578Z,7.67
2019-02-21T13:58:21.747Z,7.97
2019-02-21T14:00:49.398Z,8.10
2019-02-21T14:03:16.572Z,7.00
2019-02-21T14:05:43.739Z,8.00
2019-02-21T14:08:11.526Z,6.57
2019-02-21T14:10:38.699Z,6.90
2019-02-21T14:13:05.881Z,6.97
2019-02-21T14:15:33.126Z,6.00
2019-02-21T14:18:00.946Z,7.37
2019-02-21T14:20:28.126Z,7.73
2019-02-21T14:22:55.300Z,6.27
2019-02-21T14:25:22.510Z,6.27
2019-02-21T14:27:49.790Z,6.27
2019-02-21T14:30:18.659Z,6.80
2019-02-21T14:32:46.471Z,7.10
2019-02-21T14:35:14.204Z,7.47
2019-02-21T14:37:41.386Z,6.83
2019-02-21T14:40:12.514Z,6.90
2019-02-21T14:42:40.436Z,7.53
2019-02-21T14:45:12.713Z,8.57
2019-02-21T14:47:40.258Z,7.77
2019-02-21T14:50:09.366Z,9.07
2019-02-21T14:52:36.549Z,7.67
2019-02-21T14:55:05.076Z,7.80
2019-02-21T14:57:40.590Z,8.27
2019-02-21T15:00:01.206Z,7.90
2019-02-21T15:02:28.899Z,7.97
2019-02-21T15:04:56.068Z,8.20
2019-02-21T15:07:23.244Z,8.23
2019-02-21T15:09:50.487Z,7.87
2019-02-21T15:12:17.652Z,8.13
2019-02-21T15:14:44.853Z,7.60
2019-02-21T15:17:12.035Z,7.43
2019-02-21T15:19:39.208Z,6.90
2019-02-21T15:22:06.987Z,9.17
2019-02-21T15:24:34.470Z,8.53
2019-02-21T15:27:08.449Z,9.07
2019-02-21T15:29:31.098Z,7.27
2019-02-21T15:31:58.293Z,7.50
2019-02-21T15:34:25.470Z,8.03
2019-02-21T15:36:52.714Z,6.87
2019-02-21T15:39:20.486Z,7.47
2019-02-21T15:41:47.683Z,7.70
2019-02-21T15:44:14.862Z,8.20
2019-02-21T15:46:42.042Z,9.17
2019-02-21T15:49:09.761Z,6.97
2019-02-21T15:51:36.936Z,8.17
2019-02-21T15:54:04.102Z,7.80
2019-02-21T15:56:31.874Z,8.73
2019-02-21T15:58:59.758Z,8.10
2019-02-21T16:01:26.941Z,8.07
2019-02-21T16:03:54.673Z,9.43
2019-02-21T16:06:21.846Z,7.50
2019-02-21T16:08:49.094Z,7.87
2019-02-21T16:11:16.266Z,7.43
2019-02-21T16:13:43.453Z,7.40
2019-02-21T16:16:10.784Z,7.17
2019-02-21T16:18:38.535Z,7.03
2019-02-21T16:21:05.713Z,7.90
2019-02-21T16:23:33.335Z,6.37
2019-02-21T16:26:00.522Z,8.93
2019-02-21T16:28:27.740Z,7.87
2019-02-21T16:30:54.903Z,7.47
2019-02-21T16:33:22.066Z,7.00
2019-02-21T16:35:49.797Z,8.13
2019-02-21T16:38:16.958Z,7.47
2019-02-21T16:40:44.145Z,7.33
2019-02-21T16:43:11.335Z,6.83
2019-02-21T16:45:43.717Z,7.17
2019-02-21T16:48:07.399Z,8.20
2019-02-21T16:50:34.570Z,7.43
2019-02-21T16:53:01.756Z,7.60
2019-02-21T16:55:29.461Z,7.00
2019-02-21T16:57:56.705Z,8.23
2019-02-21T17:00:24.056Z,8.50
2019-02-21T17:02:51.252Z,8.10
2019-02-21T17:05:19.013Z,8.37
2019-02-21T17:07:46.262Z,8.17
2019-02-21T17:10:14.628Z,7.67
2019-02-21T17:12:41.806Z,7.63
2019-02-21T17:15:10.909Z,7.17
2019-02-21T17:17:38.167Z,7.93
2019-02-21T17:20:06.967Z,7.77
2019-02-21T17:22:34.151Z,8.03
2019-02-21T17:25:01.335Z,8.57
2019-02-21T17:27:28.569Z,7.07
2019-02-21T17:29:59.137Z,8.30
2019-02-21T17:32:25.390Z,7.17
2019-02-21T17:34:52.566Z,8.00
2019-02-21T17:37:24.835Z,8.03
2019-02-21T17:39:48.654Z,7.90
2019-02-21T17:42:15.813Z,7.03
2019-02-21T17:44:43.021Z,7.60
2019-02-21T17:47:10.190Z,7.43
2019-02-21T17:49:37.361Z,8.37
2019-02-21T17:52:05.029Z,9.00
2019-02-21T17:54:32.206Z,9.63
2019-02-21T17:56:59.470Z,8.47
2019-02-21T17:59:26.657Z,8.23
2019-02-21T18:01:53.902Z,8.97
2019-02-21T18:04:21.076Z,9.50
2019-02-21T18:06:48.258Z,9.43
2019-02-21T18:09:16.418Z,11.70
2019-02-21T18:11:43.990Z,10.70
2019-02-21T18:14:11.162Z,12.13
2019-02-21T18:16:38.343Z,10.70
2019-02-21T18:19:05.518Z,11.23
2019-02-21T18:21:32.715Z,13.00
2019-02-21T18:24:00.323Z,12.03
2019-02-21T18:26:27.519Z,12.90
2019-02-21T18:28:55.223Z,11.60
2019-02-21T18:31:22.392Z,12.47
2019-02-21T18:33:49.581Z,12.40
2019-02-21T18:36:16.762Z,13.17
2019-02-21T18:38:44.014Z,15.07
2019-02-21T18:41:13.370Z,15.87
2019-02-21T18:43:40.569Z,15.07
2019-02-21T18:46:07.764Z,14.13
2019-02-21T18:48:35.039Z,16.17
2019-02-21T18:51:02.255Z,15.33
2019-02-21T18:53:29.980Z,16.67
2019-02-21T18:55:57.151Z,17.87
2019-02-21T18:58:24.355Z,15.60
2019-02-21T19:00:51.535Z,17.03
2019-02-21T19:03:18.732Z,18.27
2019-02-21T19:05:45.915Z,19.87
2019-02-21T19:08:13.099Z,20.43
2019-02-21T19:10:40.279Z,19.43
2019-02-21T19:13:08.113Z,18.77
2019-02-21T19:15:36.122Z,18.63
2019-02-21T19:18:03.310Z,19.60
2019-02-21T19:20:31.557Z,19.20
2019-02-21T19:22:58.769Z,19.40
2019-02-21T19:25:25.952Z,20.30
2019-02-21T19:27:53.206Z,19.90
2019-02-21T19:30:25.703Z,19.47
2019-02-21T19:32:53.365Z,19.53
2019-02-21T19:35:20.531Z,20.37
2019-02-21T19:37:48.317Z,20.93
2019-02-21T19:40:15.490Z,22.60
2019-02-21T19:42:43.055Z,21.93
2019-02-21T19:45:10.235Z,21.70
2019-02-21T19:47:43.216Z,21.07
2019-02-21T19:50:10.477Z,22.20
2019-02-21T19:52:37.654Z,22.70
2019-02-21T19:55:06.069Z,20.93
2019-02-21T19:57:33.243Z,23.30
2019-02-21T20:00:00.435Z,21.93
2019-02-21T20:02:27.602Z,23.47
2019-02-21T20:04:55.819Z,23.30
2019-02-21T20:07:23.984Z,21.57
2019-02-21T20:09:51.490Z,21.80
2019-02-21T20:12:18.668Z,23.30
2019-02-21T20:14:47.792Z,24.67
2019-02-21T20:17:14.990Z,22.77
2019-02-21T20:19:42.195Z,22.57
2019-02-21T20:22:09.390Z,22.57
2019-02-21T20:24:36.658Z,24.33
2019-02-21T20:27:03.837Z,22.53
2019-02-21T20:29:31.024Z,23.97
2019-02-21T20:31:58.219Z,22.93
2019-02-21T20:34:25.402Z,23.33
2019-02-21T20:36:53.194Z,22.57
2019-02-21T20:39:20.387Z,24.50
2019-02-21T20:41:47.638Z,22.73
2019-02-21T20:44:15.362Z,23.37
2019-02-21T20:46:42.546Z,24.43
2019-02-21T20:49:09.760Z,22.17
2019-02-21T20:51:36.923Z,22.67
2019-02-21T20:54:04.120Z,23.07
2019-02-21T20:56:31.367Z,23.53
2019-02-21T20:58:58.569Z,25.30
2019-02-21T21:01:25.845Z,24.77
2019-02-21T21:03:53.011Z,23.20
2019-02-21T21:06:20.184Z,25.13
2019-02-21T21:08:47.380Z,24.90
2019-02-21T21:11:14.558Z,24.17
2019-02-21T21:13:44.126Z,25.27
2019-02-21T21:16:11.513Z,24.20
2019-02-21T21:18:38.693Z,23.27
2019-02-21T21:21:05.875Z,22.53
2019-02-21T21:23:33.056Z,23.40
2019-02-21T21:26:00.244Z,22.07
2019-02-21T21:28:27.426Z,22.00
2019-02-21T21:30:54.602Z,21.87
2019-02-21T21:33:21.814Z,22.80
2019-02-21T21:35:50.058Z,21.00
2019-02-21T21:38:24.121Z,22.43
2019-02-21T21:40:46.160Z,21.70
2019-02-21T21:43:13.412Z,20.67
2019-02-21T21:45:40.755Z,21.70
2019-02-21T21:48:07.927Z,21.37
2019-02-21T21:50:35.125Z,22.23
2019-02-21T21:53:02.319Z,21.50
2019-02-21T21:55:29.982Z,21.50
2019-02-21T21:57:57.153Z,22.40
2019-02-21T22:00:24.858Z,23.10
2019-02-21T22:02:52.044Z,23.43
2019-02-21T22:05:19.278Z,23.13
2019-02-21T22:07:49.074Z,21.27
2019-02-21T22:10:15.557Z,20.53
2019-02-21T22:12:42.745Z,21.17
2019-02-21T22:15:11.682Z,20.23
2019-02-21T22:17:38.861Z,21.40
2019-02-21T22:20:07.231Z,19.50
2019-02-21T22:22:34.403Z,20.10
2019-02-21T22:25:01.599Z,20.20
2019-02-21T22:27:28.831Z,20.30
2019-02-21T22:29:56.011Z,19.63
2019-02-21T22:32:23.185Z,20.43
2019-02-21T22:34:50.371Z,22.03
2019-02-21T22:37:17.559Z,18.73
2019-02-21T22:39:44.772Z,19.97
2019-02-21T22:42:11.982Z,19.70
2019-02-21T22:44:39.164Z,20.27
2019-02-21T22:47:06.335Z,19.10
2019-02-21T22:49:34.045Z,18.57
2019-02-21T22:52:01.218Z,17.87
2019-02-21T22:54:28.956Z,18.80
2019-02-21T22:56:56.177Z,19.87
2019-02-21T22:59:23.363Z,18.07
2019-02-21T23:01:50.575Z,17.87
2019-02-21T23:04:19.774Z,17.87
2019-02-21T23:06:48.578Z,18.03
2019-02-21T23:09:26.893Z,17.30
2019-02-21T23:11:46.393Z,16.80
2019-02-21T23:14:13.573Z,17.80
2019-02-21T23:16:40.751Z,17.00
2019-02-21T23:19:08.396Z,15.93
2019-02-21T23:21:35.598Z,15.97
2019-02-21T23:24:02.776Z,16.60
2019-02-21T23:26:29.973Z,14.97
2019-02-21T23:28:57.138Z,14.77
2019-02-21T23:31:24.875Z,13.80
2019-02-21T23:33:53.674Z,13.97
2019-02-21T23:36:21.402Z,13.60
2019-02-21T23:38:48.586Z,13.17
2019-02-21T23:41:15.765Z,12.07
2019-02-21T23:43:43.058Z,12.93
2019-02-21T23:46:10.526Z,12.27
2019-02-21T23:48:37.729Z,11.63
2019-02-21T23:51:05.355Z,11.60
2019-02-21T23:53:32.534Z,10.57
2019-02-21T23:55:59.712Z,10.60
2019-02-21T23:58:26.892Z,10.53
